Brigantine, New Jersey
Current Conditions -  °F | °C
As of 2:54 PM on Sunday 25 Jan 2015 (Local Time) from KACY Reporting Station
Broken Clouds Broken Clouds  
Wind Chill: 44°   Ceiling: 4800
Heat Index: 49°   Visibility: 10mi
Dew Point: 29°   Wind: 13mph
Humidity: 46%   Direction: 280°W
Pressure: 29.81"   Gusts: 22mph
Location:  39.4°N, 74.37°W
Report Text: KACY 251954Z 28011G19KT 10SM BKN048 09/M02 A2981 RMK AO2 SLP094 T00941017
Loading
Personal Weather Stations






























Interactive Weather Map New forecast layout! Learn more

10-Day Weather Forecast

Advertisements
Track Severe Weather on mobile